sensor_id;sensor_type;location;lat;lon;timestamp;temperature;humidity
6964;DHT22;3522;50.856;7.278;2023-10-19T00:01:25;11.00;99.90
6964;DHT22;3522;50.856;7.278;2023-10-19T00:03:54;11.00;99.90
6964;DHT22;3522;50.856;7.278;2023-10-19T00:06:21;11.00;99.90
6964;DHT22;3522;50.856;7.278;2023-10-19T00:08:48;11.00;99.90
6964;DHT22;3522;50.856;7.278;2023-10-19T00:11:16;11.00;99.90
6964;DHT22;3522;50.856;7.278;2023-10-19T00:13:49;11.00;99.90
6964;DHT22;3522;50.856;7.278;2023-10-19T00:16:15;11.00;99.90
6964;DHT22;3522;50.856;7.278;2023-10-19T00:18:43;11.00;99.90
6964;DHT22;3522;50.856;7.278;2023-10-19T00:21:10;11.10;99.90
6964;DHT22;3522;50.856;7.278;2023-10-19T00:23:44;11.10;99.90
6964;DHT22;3522;50.856;7.278;2023-10-19T00:26:12;11.10;99.90
6964;DHT22;3522;50.856;7.278;2023-10-19T00:28:41;11.10;99.90
6964;DHT22;3522;50.856;7.278;2023-10-19T00:31:10;11.10;99.90
6964;DHT22;3522;50.856;7.278;2023-10-19T00:33:37;11.10;99.90
6964;DHT22;3522;50.856;7.278;2023-10-19T00:36:05;11.20;99.90
6964;DHT22;3522;50.856;7.278;2023-10-19T00:38:34;11.10;99.90
6964;DHT22;3522;50.856;7.278;2023-10-19T00:41:13;11.20;99.90
6964;DHT22;3522;50.856;7.278;2023-10-19T00:43:44;11.20;99.90
6964;DHT22;3522;50.856;7.278;2023-10-19T00:46:11;11.20;99.90
6964;DHT22;3522;50.856;7.278;2023-10-19T00:48:47;11.20;99.90
6964;DHT22;3522;50.856;7.278;2023-10-19T00:51:15;11.30;99.90
6964;DHT22;3522;50.856;7.278;2023-10-19T00:53:54;11.30;99.90
6964;DHT22;3522;50.856;7.278;2023-10-19T00:56:22;11.30;99.90
6964;DHT22;3522;50.856;7.278;2023-10-19T00:58:51;11.30;99.90
6964;DHT22;3522;50.856;7.278;2023-10-19T01:01:25;11.30;99.90
6964;DHT22;3522;50.856;7.278;2023-10-19T01:03:54;11.30;99.90
6964;DHT22;3522;50.856;7.278;2023-10-19T01:06:23;11.40;99.90
6964;DHT22;3522;50.856;7.278;2023-10-19T01:08:50;11.40;99.90
6964;DHT22;3522;50.856;7.278;2023-10-19T01:11:19;11.40;99.90
6964;DHT22;3522;50.856;7.278;2023-10-19T01:13:46;11.40;99.90
6964;DHT22;3522;50.856;7.278;2023-10-19T01:16:13;11.40;99.90
6964;DHT22;3522;50.856;7.278;2023-10-19T01:18:48;11.50;99.90
6964;DHT22;3522;50.856;7.278;2023-10-19T01:21:19;11.40;99.90
6964;DHT22;3522;50.856;7.278;2023-10-19T01:23:48;11.40;99.90
6964;DHT22;3522;50.856;7.278;2023-10-19T01:26:14;11.40;99.90
6964;DHT22;3522;50.856;7.278;2023-10-19T01:28:47;11.40;99.90
6964;DHT22;3522;50.856;7.278;2023-10-19T01:31:17;11.40;99.90
6964;DHT22;3522;50.856;7.278;2023-10-19T01:33:47;11.40;99.90
6964;DHT22;3522;50.856;7.278;2023-10-19T01:36:14;11.40;99.90
6964;DHT22;3522;50.856;7.278;2023-10-19T01:38:51;11.40;99.90
6964;DHT22;3522;50.856;7.278;2023-10-19T01:41:19;11.40;99.90
6964;DHT22;3522;50.856;7.278;2023-10-19T01:43:46;11.40;99.90
6964;DHT22;3522;50.856;7.278;2023-10-19T01:46:14;11.30;99.90
6964;DHT22;3522;50.856;7.278;2023-10-19T01:48:47;11.40;99.90
6964;DHT22;3522;50.856;7.278;2023-10-19T01:51:14;11.40;99.90
6964;DHT22;3522;50.856;7.278;2023-10-19T01:53:41;11.40;99.90
6964;DHT22;3522;50.856;7.278;2023-10-19T01:56:11;11.50;99.90
6964;DHT22;3522;50.856;7.278;2023-10-19T01:58:41;11.50;99.90
6964;DHT22;3522;50.856;7.278;2023-10-19T02:01:08;11.50;99.90
6964;DHT22;3522;50.856;7.278;2023-10-19T02:03:40;11.50;99.90
6964;DHT22;3522;50.856;7.278;2023-10-19T02:06:08;11.50;99.90
6964;DHT22;3522;50.856;7.278;2023-10-19T02:08:42;11.60;99.90
6964;DHT22;3522;50.856;7.278;2023-10-19T02:11:10;11.50;99.90
6964;DHT22;3522;50.856;7.278;2023-10-19T02:13:42;11.50;99.90
6964;DHT22;3522;50.856;7.278;2023-10-19T02:16:10;11.60;99.90
6964;DHT22;3522;50.856;7.278;2023-10-19T02:18:37;11.60;99.90
6964;DHT22;3522;50.856;7.278;2023-10-19T02:21:03;11.60;99.90
6964;DHT22;3522;50.856;7.278;2023-10-19T02:23:32;11.60;99.90
6964;DHT22;3522;50.856;7.278;2023-10-19T02:25:59;11.70;99.90
6964;DHT22;3522;50.856;7.278;2023-10-19T02:28:27;11.60;99.90
6964;DHT22;3522;50.856;7.278;2023-10-19T02:30:57;11.60;99.90
6964;DHT22;3522;50.856;7.278;2023-10-19T02:33:24;11.70;99.90
6964;DHT22;3522;50.856;7.278;2023-10-19T02:35:51;11.70;99.90
6964;DHT22;3522;50.856;7.278;2023-10-19T02:38:22;11.70;99.90
6964;DHT22;3522;50.856;7.278;2023-10-19T02:40:48;11.80;99.90
6964;DHT22;3522;50.856;7.278;2023-10-19T02:43:15;11.80;99.90
6964;DHT22;3522;50.856;7.278;2023-10-19T02:45:42;11.80;99.90
6964;DHT22;3522;50.856;7.278;2023-10-19T02:48:13;11.80;99.90
6964;DHT22;3522;50.856;7.278;2023-10-19T02:50:38;11.80;99.90
6964;DHT22;3522;50.856;7.278;2023-10-19T02:53:05;11.80;99.90
6964;DHT22;3522;50.856;7.278;2023-10-19T02:55:31;11.80;99.90
6964;DHT22;3522;50.856;7.278;2023-10-19T02:57:57;11.80;99.90
6964;DHT22;3522;50.856;7.278;2023-10-19T03:00:24;11.80;99.90
6964;DHT22;3522;50.856;7.278;2023-10-19T03:02:59;11.80;99.90
6964;DHT22;3522;50.856;7.278;2023-10-19T03:05:25;11.80;99.90
6964;DHT22;3522;50.856;7.278;2023-10-19T03:07:52;11.90;99.90
6964;DHT22;3522;50.856;7.278;2023-10-19T03:10:17;11.90;99.90
6964;DHT22;3522;50.856;7.278;2023-10-19T03:12:49;11.90;99.90
6964;DHT22;3522;50.856;7.278;2023-10-19T03:15:16;11.90;99.90
6964;DHT22;3522;50.856;7.278;2023-10-19T03:17:44;12.00;99.90
6964;DHT22;3522;50.856;7.278;2023-10-19T03:20:12;12.00;99.90
6964;DHT22;3522;50.856;7.278;2023-10-19T03:22:38;12.00;99.90
6964;DHT22;3522;50.856;7.278;2023-10-19T03:25:05;12.00;99.90
6964;DHT22;3522;50.856;7.278;2023-10-19T03:27:57;12.00;99.90
6964;DHT22;3522;50.856;7.278;2023-10-19T03:30:23;11.90;99.90
6964;DHT22;3522;50.856;7.278;2023-10-19T03:32:51;11.90;99.90
6964;DHT22;3522;50.856;7.278;2023-10-19T03:35:19;12.00;99.90
6964;DHT22;3522;50.856;7.278;2023-10-19T03:37:46;11.80;99.90
6964;DHT22;3522;50.856;7.278;2023-10-19T03:40:15;11.80;99.90
6964;DHT22;3522;50.856;7.278;2023-10-19T03:42:52;11.70;99.90
6964;DHT22;3522;50.856;7.278;2023-10-19T03:45:20;11.70;99.90
6964;DHT22;3522;50.856;7.278;2023-10-19T03:47:49;11.70;99.90
6964;DHT22;3522;50.856;7.278;2023-10-19T03:50:16;11.70;99.90
6964;DHT22;3522;50.856;7.278;2023-10-19T03:52:47;11.70;99.90
6964;DHT22;3522;50.856;7.278;2023-10-19T03:55:13;11.60;99.90
6964;DHT22;3522;50.856;7.278;2023-10-19T03:57:44;11.60;99.90
6964;DHT22;3522;50.856;7.278;2023-10-19T04:00:16;11.60;99.90
6964;DHT22;3522;50.856;7.278;2023-10-19T04:02:44;11.60;99.90
6964;DHT22;3522;50.856;7.278;2023-10-19T04:05:12;11.60;99.90
6964;DHT22;3522;50.856;7.278;2023-10-19T04:07:46;11.70;99.90
6964;DHT22;3522;50.856;7.278;2023-10-19T04:10:15;11.80;99.90
6964;DHT22;3522;50.856;7.278;2023-10-19T04:12:55;11.80;99.90
6964;DHT22;3522;50.856;7.278;2023-10-19T04:15:23;11.80;99.90
6964;DHT22;3522;50.856;7.278;2023-10-19T04:17:52;11.80;99.90
6964;DHT22;3522;50.856;7.278;2023-10-19T04:20:20;11.80;99.90
6964;DHT22;3522;50.856;7.278;2023-10-19T04:22:55;11.80;99.90
6964;DHT22;3522;50.856;7.278;2023-10-19T04:25:23;11.90;99.90
6964;DHT22;3522;50.856;7.278;2023-10-19T04:27:51;11.90;99.90
6964;DHT22;3522;50.856;7.278;2023-10-19T04:30:17;11.90;99.90
6964;DHT22;3522;50.856;7.278;2023-10-19T04:32:47;11.90;99.90
6964;DHT22;3522;50.856;7.278;2023-10-19T04:35:14;11.90;99.90
6964;DHT22;3522;50.856;7.278;2023-10-19T04:37:46;12.00;99.90
6964;DHT22;3522;50.856;7.278;2023-10-19T04:40:14;12.00;99.90
6964;DHT22;3522;50.856;7.278;2023-10-19T04:42:41;12.00;99.90
6964;DHT22;3522;50.856;7.278;2023-10-19T04:45:07;12.10;99.90
6964;DHT22;3522;50.856;7.278;2023-10-19T04:47:37;12.10;99.90
6964;DHT22;3522;50.856;7.278;2023-10-19T04:50:03;12.10;99.90
6964;DHT22;3522;50.856;7.278;2023-10-19T04:52:31;12.10;99.90
6964;DHT22;3522;50.856;7.278;2023-10-19T04:54:58;12.10;99.90
6964;DHT22;3522;50.856;7.278;2023-10-19T04:57:26;12.10;99.90
6964;DHT22;3522;50.856;7.278;2023-10-19T04:59:52;12.10;99.90
6964;DHT22;3522;50.856;7.278;2023-10-19T05:02:19;12.10;99.90
6964;DHT22;3522;50.856;7.278;2023-10-19T05:04:45;12.20;99.90
6964;DHT22;3522;50.856;7.278;2023-10-19T05:07:12;12.20;99.90
6964;DHT22;3522;50.856;7.278;2023-10-19T05:09:41;12.20;99.90
6964;DHT22;3522;50.856;7.278;2023-10-19T05:12:08;12.20;99.90
6964;DHT22;3522;50.856;7.278;2023-10-19T05:14:38;12.20;99.90
6964;DHT22;3522;50.856;7.278;2023-10-19T05:17:05;12.20;99.90
6964;DHT22;3522;50.856;7.278;2023-10-19T05:19:32;12.30;99.90
6964;DHT22;3522;50.856;7.278;2023-10-19T05:22:00;12.20;99.90
6964;DHT22;3522;50.856;7.278;2023-10-19T05:24:27;12.20;99.90
6964;DHT22;3522;50.856;7.278;2023-10-19T05:26:53;12.20;99.90
6964;DHT22;3522;50.856;7.278;2023-10-19T05:29:19;12.20;99.90
6964;DHT22;3522;50.856;7.278;2023-10-19T05:31:47;12.20;99.90
6964;DHT22;3522;50.856;7.278;2023-10-19T05:34:19;12.20;99.90
6964;DHT22;3522;50.856;7.278;2023-10-19T05:36:46;12.30;99.90
6964;DHT22;3522;50.856;7.278;2023-10-19T05:39:14;12.30;99.90
6964;DHT22;3522;50.856;7.278;2023-10-19T05:41:40;12.30;99.90
6964;DHT22;3522;50.856;7.278;2023-10-19T05:44:07;12.30;99.90
6964;DHT22;3522;50.856;7.278;2023-10-19T05:46:34;12.30;99.90
6964;DHT22;3522;50.856;7.278;2023-10-19T05:49:02;12.30;99.90
6964;DHT22;3522;50.856;7.278;2023-10-19T05:51:31;12.30;99.90
6964;DHT22;3522;50.856;7.278;2023-10-19T05:53:58;12.40;99.90
6964;DHT22;3522;50.856;7.278;2023-10-19T05:56:28;12.40;99.90
6964;DHT22;3522;50.856;7.278;2023-10-19T05:58:55;12.50;99.90
6964;DHT22;3522;50.856;7.278;2023-10-19T06:01:22;12.50;99.90
6964;DHT22;3522;50.856;7.278;2023-10-19T06:03:49;12.50;99.90
6964;DHT22;3522;50.856;7.278;2023-10-19T06:06:19;12.50;99.90
6964;DHT22;3522;50.856;7.278;2023-10-19T06:08:46;12.50;99.90
6964;DHT22;3522;50.856;7.278;2023-10-19T06:11:12;12.60;99.90
6964;DHT22;3522;50.856;7.278;2023-10-19T06:13:39;12.60;99.90
6964;DHT22;3522;50.856;7.278;2023-10-19T06:16:05;12.70;99.90
6964;DHT22;3522;50.856;7.278;2023-10-19T06:18:32;12.60;99.90
6964;DHT22;3522;50.856;7.278;2023-10-19T06:20:59;12.70;99.90
6964;DHT22;3522;50.856;7.278;2023-10-19T06:23:27;12.70;99.90
6964;DHT22;3522;50.856;7.278;2023-10-19T06:25:53;12.70;99.90
6964;DHT22;3522;50.856;7.278;2023-10-19T06:28:20;12.80;99.90
6964;DHT22;3522;50.856;7.278;2023-10-19T06:30:46;12.80;99.90
6964;DHT22;3522;50.856;7.278;2023-10-19T06:33:15;12.80;99.90
6964;DHT22;3522;50.856;7.278;2023-10-19T06:35:41;12.80;99.90
6964;DHT22;3522;50.856;7.278;2023-10-19T06:38:08;12.90;99.90
6964;DHT22;3522;50.856;7.278;2023-10-19T06:40:36;12.90;99.90
6964;DHT22;3522;50.856;7.278;2023-10-19T06:43:03;13.00;99.90
6964;DHT22;3522;50.856;7.278;2023-10-19T06:45:30;12.90;99.90
6964;DHT22;3522;50.856;7.278;2023-10-19T06:47:57;13.00;99.90
6964;DHT22;3522;50.856;7.278;2023-10-19T06:50:25;13.00;99.90
6964;DHT22;3522;50.856;7.278;2023-10-19T06:52:51;13.00;99.90
6964;DHT22;3522;50.856;7.278;2023-10-19T06:55:19;13.00;99.90
6964;DHT22;3522;50.856;7.278;2023-10-19T06:57:50;13.00;99.90
6964;DHT22;3522;50.856;7.278;2023-10-19T07:00:18;13.00;99.90
6964;DHT22;3522;50.856;7.278;2023-10-19T07:02:46;13.10;99.90
6964;DHT22;3522;50.856;7.278;2023-10-19T07:05:13;13.10;99.90
6964;DHT22;3522;50.856;7.278;2023-10-19T07:07:44;13.10;99.90
6964;DHT22;3522;50.856;7.278;2023-10-19T07:10:11;13.10;99.90
6964;DHT22;3522;50.856;7.278;2023-10-19T07:12:39;13.20;99.90
6964;DHT22;3522;50.856;7.278;2023-10-19T07:15:08;13.20;99.90
6964;DHT22;3522;50.856;7.278;2023-10-19T07:17:39;13.20;99.90
6964;DHT22;3522;50.856;7.278;2023-10-19T07:20:06;13.20;99.90
6964;DHT22;3522;50.856;7.278;2023-10-19T07:22:33;13.30;99.90
6964;DHT22;3522;50.856;7.278;2023-10-19T07:24:59;13.30;99.90
6964;DHT22;3522;50.856;7.278;2023-10-19T07:27:27;13.40;99.90
6964;DHT22;3522;50.856;7.278;2023-10-19T07:29:54;13.40;99.90
6964;DHT22;3522;50.856;7.278;2023-10-19T07:32:21;13.50;99.90
6964;DHT22;3522;50.856;7.278;2023-10-19T07:34:48;13.50;99.90
6964;DHT22;3522;50.856;7.278;2023-10-19T07:37:15;13.60;99.90
6964;DHT22;3522;50.856;7.278;2023-10-19T07:39:44;13.60;99.90
6964;DHT22;3522;50.856;7.278;2023-10-19T07:42:10;13.80;99.90
6964;DHT22;3522;50.856;7.278;2023-10-19T07:44:37;13.70;99.90
6964;DHT22;3522;50.856;7.278;2023-10-19T07:47:04;13.70;99.90
6964;DHT22;3522;50.856;7.278;2023-10-19T07:49:33;13.70;99.90
6964;DHT22;3522;50.856;7.278;2023-10-19T07:52:00;13.70;99.90
6964;DHT22;3522;50.856;7.278;2023-10-19T07:54:26;13.70;99.90
6964;DHT22;3522;50.856;7.278;2023-10-19T07:56:54;13.80;99.90
6964;DHT22;3522;50.856;7.278;2023-10-19T07:59:20;13.80;99.90
6964;DHT22;3522;50.856;7.278;2023-10-19T08:01:47;13.80;99.90
6964;DHT22;3522;50.856;7.278;2023-10-19T08:04:13;13.90;99.90
6964;DHT22;3522;50.856;7.278;2023-10-19T08:06:41;13.90;99.90
6964;DHT22;3522;50.856;7.278;2023-10-19T08:09:08;14.00;99.90
6964;DHT22;3522;50.856;7.278;2023-10-19T08:11:36;14.00;99.90
6964;DHT22;3522;50.856;7.278;2023-10-19T08:14:03;14.10;99.90
6964;DHT22;3522;50.856;7.278;2023-10-19T08:16:30;14.20;99.90
6964;DHT22;3522;50.856;7.278;2023-10-19T08:18:57;14.30;99.90
6964;DHT22;3522;50.856;7.278;2023-10-19T08:21:23;14.30;99.90
6964;DHT22;3522;50.856;7.278;2023-10-19T08:23:53;14.40;99.90
6964;DHT22;3522;50.856;7.278;2023-10-19T08:26:21;14.50;99.90
6964;DHT22;3522;50.856;7.278;2023-10-19T08:28:47;14.60;99.90
6964;DHT22;3522;50.856;7.278;2023-10-19T08:31:15;14.70;99.90
6964;DHT22;3522;50.856;7.278;2023-10-19T08:33:41;14.80;99.90
6964;DHT22;3522;50.856;7.278;2023-10-19T08:36:15;14.90;99.90
6964;DHT22;3522;50.856;7.278;2023-10-19T08:38:43;15.00;99.90
6964;DHT22;3522;50.856;7.278;2023-10-19T08:41:13;15.20;99.90
6964;DHT22;3522;50.856;7.278;2023-10-19T08:43:39;15.20;99.90
6964;DHT22;3522;50.856;7.278;2023-10-19T08:46:06;15.30;99.90
6964;DHT22;3522;50.856;7.278;2023-10-19T08:48:33;15.40;99.90
6964;DHT22;3522;50.856;7.278;2023-10-19T08:50:59;15.60;99.90
6964;DHT22;3522;50.856;7.278;2023-10-19T08:53:27;15.70;99.90
6964;DHT22;3522;50.856;7.278;2023-10-19T08:55:54;15.80;99.90
6964;DHT22;3522;50.856;7.278;2023-10-19T08:58:22;15.90;99.90
6964;DHT22;3522;50.856;7.278;2023-10-19T09:00:50;16.20;99.90
6964;DHT22;3522;50.856;7.278;2023-10-19T09:03:19;16.40;99.90
6964;DHT22;3522;50.856;7.278;2023-10-19T09:05:47;16.70;99.90
6964;DHT22;3522;50.856;7.278;2023-10-19T09:08:14;17.10;99.90
6964;DHT22;3522;50.856;7.278;2023-10-19T09:10:42;17.40;99.90
6964;DHT22;3522;50.856;7.278;2023-10-19T09:13:10;17.70;99.90
6964;DHT22;3522;50.856;7.278;2023-10-19T09:15:39;18.00;99.90
6964;DHT22;3522;50.856;7.278;2023-10-19T09:18:13;18.20;99.90
6964;DHT22;3522;50.856;7.278;2023-10-19T09:20:40;18.50;99.90
6964;DHT22;3522;50.856;7.278;2023-10-19T09:23:07;18.80;99.90
6964;DHT22;3522;50.856;7.278;2023-10-19T09:25:34;18.90;99.90
6964;DHT22;3522;50.856;7.278;2023-10-19T09:28:01;18.90;99.90
6964;DHT22;3522;50.856;7.278;2023-10-19T09:30:28;18.90;99.90
6964;DHT22;3522;50.856;7.278;2023-10-19T09:32:57;18.90;99.90
6964;DHT22;3522;50.856;7.278;2023-10-19T09:35:24;19.00;99.90
6964;DHT22;3522;50.856;7.278;2023-10-19T09:37:53;19.20;99.90
6964;DHT22;3522;50.856;7.278;2023-10-19T09:40:19;19.50;99.90
6964;DHT22;3522;50.856;7.278;2023-10-19T09:42:47;19.80;99.90
6964;DHT22;3522;50.856;7.278;2023-10-19T09:45:14;20.10;99.90
6964;DHT22;3522;50.856;7.278;2023-10-19T09:47:42;20.40;99.90
6964;DHT22;3522;50.856;7.278;2023-10-19T09:50:13;20.50;99.90
6964;DHT22;3522;50.856;7.278;2023-10-19T09:52:40;20.60;99.90
6964;DHT22;3522;50.856;7.278;2023-10-19T09:55:07;20.80;99.90
6964;DHT22;3522;50.856;7.278;2023-10-19T09:57:37;20.80;99.90
6964;DHT22;3522;50.856;7.278;2023-10-19T10:00:06;20.90;99.90
6964;DHT22;3522;50.856;7.278;2023-10-19T10:02:38;20.90;99.90
6964;DHT22;3522;50.856;7.278;2023-10-19T10:05:19;21.10;99.90
6964;DHT22;3522;50.856;7.278;2023-10-19T10:10:47;21.00;99.90
6964;DHT22;3522;50.856;7.278;2023-10-19T10:16:00;20.70;99.90
6964;DHT22;3522;50.856;7.278;2023-10-19T10:18:30;20.80;99.90
6964;DHT22;3522;50.856;7.278;2023-10-19T10:21:05;21.00;99.90
6964;DHT22;3522;50.856;7.278;2023-10-19T10:23:37;21.00;99.90
6964;DHT22;3522;50.856;7.278;2023-10-19T10:26:06;20.90;99.90
6964;DHT22;3522;50.856;7.278;2023-10-19T10:28:34;21.00;99.90
6964;DHT22;3522;50.856;7.278;2023-10-19T10:31:10;21.10;99.90
6964;DHT22;3522;50.856;7.278;2023-10-19T10:33:40;21.00;99.90
6964;DHT22;3522;50.856;7.278;2023-10-19T10:36:10;21.00;99.90
6964;DHT22;3522;50.856;7.278;2023-10-19T10:38:37;21.20;99.90
6964;DHT22;3522;50.856;7.278;2023-10-19T10:41:03;21.30;99.90
6964;DHT22;3522;50.856;7.278;2023-10-19T10:43:30;21.30;99.90
6964;DHT22;3522;50.856;7.278;2023-10-19T10:46:03;21.40;99.90
6964;DHT22;3522;50.856;7.278;2023-10-19T10:48:30;21.30;99.90
6964;DHT22;3522;50.856;7.278;2023-10-19T10:50:56;21.10;99.90
6964;DHT22;3522;50.856;7.278;2023-10-19T10:53:24;20.80;99.90
6964;DHT22;3522;50.856;7.278;2023-10-19T10:55:52;20.40;99.90
6964;DHT22;3522;50.856;7.278;2023-10-19T10:58:18;20.00;99.90
6964;DHT22;3522;50.856;7.278;2023-10-19T11:00:45;19.80;99.90
6964;DHT22;3522;50.856;7.278;2023-10-19T11:03:14;19.70;99.90
6964;DHT22;3522;50.856;7.278;2023-10-19T11:05:41;19.60;99.90
6964;DHT22;3522;50.856;7.278;2023-10-19T11:08:11;19.50;99.90
6964;DHT22;3522;50.856;7.278;2023-10-19T11:10:40;19.30;99.90
6964;DHT22;3522;50.856;7.278;2023-10-19T11:13:08;19.20;99.90
6964;DHT22;3522;50.856;7.278;2023-10-19T11:15:35;19.10;99.90
6964;DHT22;3522;50.856;7.278;2023-10-19T11:18:03;19.00;99.90
6964;DHT22;3522;50.856;7.278;2023-10-19T11:20:30;18.80;99.90
6964;DHT22;3522;50.856;7.278;2023-10-19T11:22:57;18.80;99.90
6964;DHT22;3522;50.856;7.278;2023-10-19T11:25:26;18.70;99.90
6964;DHT22;3522;50.856;7.278;2023-10-19T11:27:54;18.50;99.90
6964;DHT22;3522;50.856;7.278;2023-10-19T11:30:25;18.50;99.90
6964;DHT22;3522;50.856;7.278;2023-10-19T11:32:52;18.40;99.90
6964;DHT22;3522;50.856;7.278;2023-10-19T11:35:22;18.30;99.90
6964;DHT22;3522;50.856;7.278;2023-10-19T11:37:49;18.30;99.90
6964;DHT22;3522;50.856;7.278;2023-10-19T11:40:16;18.20;99.90
6964;DHT22;3522;50.856;7.278;2023-10-19T11:42:42;18.20;99.90
6964;DHT22;3522;50.856;7.278;2023-10-19T11:45:10;18.20;99.90
6964;DHT22;3522;50.856;7.278;2023-10-19T11:47:37;18.20;99.90
6964;DHT22;3522;50.856;7.278;2023-10-19T11:50:04;18.30;99.90
6964;DHT22;3522;50.856;7.278;2023-10-19T11:52:31;18.30;99.90
6964;DHT22;3522;50.856;7.278;2023-10-19T11:54:58;18.30;99.90
6964;DHT22;3522;50.856;7.278;2023-10-19T11:57:25;18.30;99.90
6964;DHT22;3522;50.856;7.278;2023-10-19T11:59:51;18.30;99.90
6964;DHT22;3522;50.856;7.278;2023-10-19T12:02:20;18.30;99.90
6964;DHT22;3522;50.856;7.278;2023-10-19T12:04:46;18.20;99.90
6964;DHT22;3522;50.856;7.278;2023-10-19T12:07:13;18.20;99.90
6964;DHT22;3522;50.856;7.278;2023-10-19T12:09:39;18.10;99.90
6964;DHT22;3522;50.856;7.278;2023-10-19T12:12:07;18.00;99.90
6964;DHT22;3522;50.856;7.278;2023-10-19T12:14:34;17.90;99.90
6964;DHT22;3522;50.856;7.278;2023-10-19T12:17:01;17.70;99.90
6964;DHT22;3522;50.856;7.278;2023-10-19T12:19:30;17.60;99.90
6964;DHT22;3522;50.856;7.278;2023-10-19T12:21:56;17.60;99.90
6964;DHT22;3522;50.856;7.278;2023-10-19T12:24:23;17.40;99.90
6964;DHT22;3522;50.856;7.278;2023-10-19T12:26:53;17.40;99.90
6964;DHT22;3522;50.856;7.278;2023-10-19T12:29:20;17.30;99.90
6964;DHT22;3522;50.856;7.278;2023-10-19T12:31:47;17.30;99.90
6964;DHT22;3522;50.856;7.278;2023-10-19T12:34:13;17.20;99.90
6964;DHT22;3522;50.856;7.278;2023-10-19T12:36:43;17.20;99.90
6964;DHT22;3522;50.856;7.278;2023-10-19T12:39:11;17.10;99.90
6964;DHT22;3522;50.856;7.278;2023-10-19T12:42:00;17.10;99.90
6964;DHT22;3522;50.856;7.278;2023-10-19T12:44:28;17.10;99.90
6964;DHT22;3522;50.856;7.278;2023-10-19T12:46:57;17.10;99.90
6964;DHT22;3522;50.856;7.278;2023-10-19T12:49:24;17.00;99.90
6964;DHT22;3522;50.856;7.278;2023-10-19T12:51:53;17.00;99.90
6964;DHT22;3522;50.856;7.278;2023-10-19T12:54:21;17.00;99.90
6964;DHT22;3522;50.856;7.278;2023-10-19T12:56:47;17.10;99.90
6964;DHT22;3522;50.856;7.278;2023-10-19T12:59:15;17.00;99.90
6964;DHT22;3522;50.856;7.278;2023-10-19T13:01:43;17.10;99.90
6964;DHT22;3522;50.856;7.278;2023-10-19T13:04:13;17.10;99.90
6964;DHT22;3522;50.856;7.278;2023-10-19T13:06:41;17.10;99.90
6964;DHT22;3522;50.856;7.278;2023-10-19T13:09:10;17.10;99.90
6964;DHT22;3522;50.856;7.278;2023-10-19T13:11:36;17.10;99.90
6964;DHT22;3522;50.856;7.278;2023-10-19T13:14:05;17.10;99.90
6964;DHT22;3522;50.856;7.278;2023-10-19T13:16:32;17.20;99.90
6964;DHT22;3522;50.856;7.278;2023-10-19T13:18:58;17.20;99.90
6964;DHT22;3522;50.856;7.278;2023-10-19T13:21:34;17.30;99.90
6964;DHT22;3522;50.856;7.278;2023-10-19T13:24:00;17.40;99.90
6964;DHT22;3522;50.856;7.278;2023-10-19T13:26:28;17.40;99.90
6964;DHT22;3522;50.856;7.278;2023-10-19T13:28:55;17.40;99.90
6964;DHT22;3522;50.856;7.278;2023-10-19T13:31:22;17.40;99.90
6964;DHT22;3522;50.856;7.278;2023-10-19T13:33:48;17.30;99.90
6964;DHT22;3522;50.856;7.278;2023-10-19T13:36:15;17.30;99.90
6964;DHT22;3522;50.856;7.278;2023-10-19T13:38:42;17.20;99.90
6964;DHT22;3522;50.856;7.278;2023-10-19T13:41:09;17.10;99.90
6964;DHT22;3522;50.856;7.278;2023-10-19T13:43:38;17.10;99.90
6964;DHT22;3522;50.856;7.278;2023-10-19T13:46:04;17.00;99.90
6964;DHT22;3522;50.856;7.278;2023-10-19T13:48:31;16.90;99.90
6964;DHT22;3522;50.856;7.278;2023-10-19T13:50:58;16.80;99.90
6964;DHT22;3522;50.856;7.278;2023-10-19T13:53:31;16.80;99.90
6964;DHT22;3522;50.856;7.278;2023-10-19T13:55:57;16.70;99.90
6964;DHT22;3522;50.856;7.278;2023-10-19T13:58:24;16.70;99.90
6964;DHT22;3522;50.856;7.278;2023-10-19T14:00:52;16.60;99.90
6964;DHT22;3522;50.856;7.278;2023-10-19T14:03:18;16.60;99.90
6964;DHT22;3522;50.856;7.278;2023-10-19T14:05:46;16.50;99.90
6964;DHT22;3522;50.856;7.278;2023-10-19T14:08:14;16.40;99.90
6964;DHT22;3522;50.856;7.278;2023-10-19T14:10:40;16.40;99.90
6964;DHT22;3522;50.856;7.278;2023-10-19T14:13:07;16.30;99.90
6964;DHT22;3522;50.856;7.278;2023-10-19T14:15:34;16.20;99.90
6964;DHT22;3522;50.856;7.278;2023-10-19T14:18:02;16.20;99.90
6964;DHT22;3522;50.856;7.278;2023-10-19T14:20:29;16.20;99.90
6964;DHT22;3522;50.856;7.278;2023-10-19T14:22:57;16.10;99.90
6964;DHT22;3522;50.856;7.278;2023-10-19T14:25:24;16.10;99.90
6964;DHT22;3522;50.856;7.278;2023-10-19T14:27:52;16.10;99.90
6964;DHT22;3522;50.856;7.278;2023-10-19T14:30:21;16.10;99.90
6964;DHT22;3522;50.856;7.278;2023-10-19T14:32:48;16.10;99.90
6964;DHT22;3522;50.856;7.278;2023-10-19T14:35:17;16.10;99.90
6964;DHT22;3522;50.856;7.278;2023-10-19T14:37:45;16.10;99.90
6964;DHT22;3522;50.856;7.278;2023-10-19T14:40:13;16.10;99.90
6964;DHT22;3522;50.856;7.278;2023-10-19T14:42:41;16.10;99.90
6964;DHT22;3522;50.856;7.278;2023-10-19T14:45:08;16.10;99.90
6964;DHT22;3522;50.856;7.278;2023-10-19T14:47:36;16.10;99.90
6964;DHT22;3522;50.856;7.278;2023-10-19T14:50:06;16.10;99.90
6964;DHT22;3522;50.856;7.278;2023-10-19T14:52:35;16.20;99.90
6964;DHT22;3522;50.856;7.278;2023-10-19T14:55:02;16.10;99.90
6964;DHT22;3522;50.856;7.278;2023-10-19T14:57:31;16.10;99.90
6964;DHT22;3522;50.856;7.278;2023-10-19T14:59:58;16.10;99.90
6964;DHT22;3522;50.856;7.278;2023-10-19T15:02:30;16.10;99.90
6964;DHT22;3522;50.856;7.278;2023-10-19T15:04:57;16.10;99.90
6964;DHT22;3522;50.856;7.278;2023-10-19T15:07:23;16.10;99.90
6964;DHT22;3522;50.856;7.278;2023-10-19T15:09:51;16.00;99.90
6964;DHT22;3522;50.856;7.278;2023-10-19T15:12:17;16.00;99.90
6964;DHT22;3522;50.856;7.278;2023-10-19T15:14:44;16.00;99.90
6964;DHT22;3522;50.856;7.278;2023-10-19T15:17:11;16.00;99.90
6964;DHT22;3522;50.856;7.278;2023-10-19T15:19:37;16.00;99.90
6964;DHT22;3522;50.856;7.278;2023-10-19T15:22:04;16.00;99.90
6964;DHT22;3522;50.856;7.278;2023-10-19T15:24:31;16.00;99.90
6964;DHT22;3522;50.856;7.278;2023-10-19T15:26:59;16.00;99.90
6964;DHT22;3522;50.856;7.278;2023-10-19T15:29:25;16.10;99.90
6964;DHT22;3522;50.856;7.278;2023-10-19T15:31:52;16.10;99.90
6964;DHT22;3522;50.856;7.278;2023-10-19T15:34:19;16.10;99.90
6964;DHT22;3522;50.856;7.278;2023-10-19T15:36:45;16.10;99.90
6964;DHT22;3522;50.856;7.278;2023-10-19T15:39:12;16.20;99.90
6964;DHT22;3522;50.856;7.278;2023-10-19T15:41:39;16.20;99.90
6964;DHT22;3522;50.856;7.278;2023-10-19T15:44:07;16.20;99.90
6964;DHT22;3522;50.856;7.278;2023-10-19T15:46:33;16.20;99.90
6964;DHT22;3522;50.856;7.278;2023-10-19T15:49:04;16.20;99.90
6964;DHT22;3522;50.856;7.278;2023-10-19T15:51:32;16.20;99.90
6964;DHT22;3522;50.856;7.278;2023-10-19T15:53:59;16.20;99.90
6964;DHT22;3522;50.856;7.278;2023-10-19T15:56:27;16.20;99.90
6964;DHT22;3522;50.856;7.278;2023-10-19T15:58:54;16.30;99.90
6964;DHT22;3522;50.856;7.278;2023-10-19T16:01:22;16.20;99.90
6964;DHT22;3522;50.856;7.278;2023-10-19T16:03:49;16.20;99.90
6964;DHT22;3522;50.856;7.278;2023-10-19T16:06:16;16.10;99.90
6964;DHT22;3522;50.856;7.278;2023-10-19T16:08:43;16.10;99.90
6964;DHT22;3522;50.856;7.278;2023-10-19T16:11:09;16.00;99.90
6964;DHT22;3522;50.856;7.278;2023-10-19T16:13:36;15.90;99.90